createdAt,value
2023-02-19T00:07:56.854Z,101564.09
2023-02-19T00:18:01.079Z,101578.09
2023-02-19T00:28:03.843Z,101567.59
2023-02-19T00:38:08.189Z,101573.41
2023-02-19T00:48:11.046Z,101575.34
2023-02-19T00:58:15.214Z,101574.72
2023-02-19T01:08:18.033Z,101593.16
2023-02-19T01:18:22.334Z,101600.16
2023-02-19T01:28:25.100Z,101609.16
2023-02-19T01:38:29.312Z,101614.69
2023-02-19T01:48:33.451Z,101625.56
2023-02-19T01:58:38.197Z,101623.38
2023-02-19T02:08:58.718Z,101605.91
2023-02-19T02:19:10.996Z,101614.38
2023-02-19T02:29:22.089Z,101620.28
2023-02-19T02:39:28.251Z,101619.59
2023-02-19T02:49:31.756Z,101628.66
2023-02-19T02:59:38.669Z,101634.16
2023-02-19T03:09:43.740Z,101637.28
2023-02-19T03:19:51.727Z,101655.91
2023-02-19T03:29:56.143Z,101650.97
2023-02-19T03:40:01.683Z,101657.19
2023-02-19T03:50:10.231Z,101667.66
2023-02-19T04:00:17.140Z,101678.59
2023-02-19T04:10:21.051Z,101698.97
2023-02-19T04:20:30.962Z,101700.56
2023-02-19T04:30:33.893Z,101716.16
2023-02-19T04:40:38.126Z,101729.31
2023-02-19T04:50:41.009Z,101745.78
2023-02-19T05:00:45.212Z,101759.13
2023-02-19T05:10:48.042Z,101784.03
2023-02-19T05:20:52.419Z,101788.31
2023-02-19T05:30:55.942Z,101785.28
2023-02-19T05:41:07.394Z,101797.75
2023-02-19T05:51:11.673Z,101812.88
2023-02-19T06:01:17.761Z,101819.50
2023-02-19T06:11:21.071Z,101799.41
2023-02-19T06:21:25.216Z,101816.94
2023-02-19T06:31:28.105Z,101824.69
2023-02-19T06:41:32.405Z,101851.91
2023-02-19T06:51:35.692Z,101861.16
2023-02-19T07:01:40.093Z,101871.59
2023-02-19T07:11:42.928Z,101884.31
2023-02-19T07:21:47.041Z,101902.59
2023-02-19T07:31:50.302Z,101930.25
2023-02-19T07:41:54.682Z,101941.91
2023-02-19T07:52:02.707Z,101962.09
2023-02-19T08:02:28.850Z,101991.25
2023-02-19T08:12:49.411Z,101997.09
2023-02-19T08:22:53.686Z,102009.84
2023-02-19T08:32:56.838Z,102025.75
2023-02-19T08:43:04.740Z,102023.00
2023-02-19T08:53:08.033Z,102038.84
2023-02-19T09:03:12.303Z,102044.56
2023-02-19T09:13:15.322Z,102062.31
2023-02-19T09:23:19.442Z,102056.13
2023-02-19T09:33:22.184Z,102061.75
2023-02-19T09:43:28.864Z,102082.97
2023-02-19T09:53:40.326Z,102089.88
2023-02-19T10:03:46.953Z,102129.69
2023-02-19T10:13:52.686Z,102150.97
2023-02-19T10:23:58.636Z,102155.31
2023-02-19T10:34:02.500Z,102166.63
2023-02-19T10:44:09.088Z,102198.19
2023-02-19T10:54:17.368Z,102201.28
2023-02-19T11:04:21.651Z,102205.78
2023-02-19T11:14:26.225Z,102211.19
2023-02-19T11:24:35.617Z,102206.81
2023-02-19T11:34:39.395Z,102195.88
2023-02-19T11:44:52.353Z,102193.28
2023-02-19T11:54:58.284Z,102195.28
2023-02-19T12:05:11.182Z,102194.00
2023-02-19T12:15:28.360Z,102188.47
2023-02-19T12:25:38.073Z,102190.19
2023-02-19T12:35:46.284Z,102196.31
2023-02-19T12:45:53.449Z,102198.38
2023-02-19T12:55:57.905Z,102191.59
2023-02-19T13:06:04.912Z,102210.72
2023-02-19T13:16:10.311Z,102228.19
2023-02-19T13:26:31.138Z,102230.84
2023-02-19T13:36:37.133Z,102248.84
2023-02-19T13:46:41.583Z,102278.72
2023-02-19T13:56:45.968Z,102283.56
2023-02-19T14:07:03.550Z,102289.56
2023-02-19T14:17:26.057Z,102309.03
2023-02-19T14:27:29.031Z,102316.06
2023-02-19T14:37:33.419Z,102313.69
2023-02-19T14:47:38.243Z,102310.59
2023-02-19T14:57:45.759Z,102298.97
2023-02-19T15:07:49.129Z,102287.28
2023-02-19T15:17:54.039Z,102262.78
2023-02-19T15:27:57.004Z,102259.69
2023-02-19T15:38:02.193Z,102272.91
2023-02-19T15:48:07.261Z,102306.72
2023-02-19T15:58:16.000Z,102323.41
2023-02-19T16:08:21.507Z,102329.19
2023-02-19T16:18:25.814Z,102332.59
2023-02-19T16:28:30.321Z,102346.09
2023-02-19T16:38:34.477Z,102369.69
2023-02-19T16:48:37.291Z,102389.00
2023-02-19T16:58:41.704Z,102401.03
2023-02-19T17:08:45.042Z,102389.31
2023-02-19T17:18:50.065Z,102405.22
2023-02-19T17:28:53.399Z,102410.28
2023-02-19T17:38:58.049Z,102418.41
2023-02-19T17:49:00.958Z,102409.88
2023-02-19T17:59:05.390Z,102420.28
2023-02-19T18:09:08.163Z,102424.81
2023-02-19T18:19:12.751Z,102430.22
2023-02-19T18:29:15.937Z,102451.28
2023-02-19T18:39:20.279Z,102443.66
2023-02-19T18:49:24.976Z,102437.94
2023-02-19T18:59:29.366Z,102428.06
2023-02-19T19:09:32.469Z,102452.22
2023-02-19T19:19:36.771Z,102446.94
2023-02-19T19:29:39.573Z,102443.28
2023-02-19T19:39:45.239Z,102442.81
2023-02-19T19:49:48.366Z,102463.53
2023-02-19T19:59:52.534Z,102457.22
2023-02-19T20:09:55.492Z,102471.69
2023-02-19T20:19:59.650Z,102463.00
2023-02-19T20:30:02.497Z,102463.50
2023-02-19T20:40:07.666Z,102467.94
2023-02-19T20:50:11.133Z,102454.53
2023-02-19T21:00:17.070Z,102442.19
2023-02-19T21:10:20.374Z,102431.97
2023-02-19T21:20:24.533Z,102442.19
2023-02-19T21:30:27.720Z,102446.63
2023-02-19T21:40:32.925Z,102429.97
2023-02-19T21:50:35.646Z,102396.28
2023-02-19T22:00:39.840Z,102404.47
2023-02-19T22:10:42.792Z,102416.19
2023-02-19T22:20:47.120Z,102429.53
2023-02-19T22:30:50.159Z,102412.50
2023-02-19T22:40:54.524Z,102418.63
2023-02-19T22:50:57.496Z,102407.72
2023-02-19T23:01:01.768Z,102399.19
2023-02-19T23:11:04.656Z,102395.31
2023-02-19T23:21:08.919Z,102395.31
2023-02-19T23:31:12.555Z,102369.63
2023-02-19T23:41:17.959Z,102356.59
2023-02-19T23:51:20.688Z,102340.75
